Sylvania, Ohio
Current Conditions -  °F | °C
As of 9:34 AM on Sunday 25 Jan 2015 (Local Time) from KDUH Reporting Station
Haze Haze  
Wind Chill: 18°   Ceiling: 1300
Heat Index: 28°   Visibility: 4mi
Dew Point: 23°   Wind: 12mph
Humidity: 80%   Direction: 80°E
Pressure: 29.85"   Gusts: 16mph
Location:  41.72°N, 83.7°W
Report Text: KDUH 251434Z AUTO 08010G14KT 4SM HZ BKN013 OVC020 M02/M05 A2985 RMK AO2
Loading
Personal Weather Stations






























Interactive Weather Map New forecast layout! Learn more

10-Day Weather Forecast

Advertisements
Track Severe Weather on mobile